createdAt,value
2022-08-20T00:01:57.690Z,5.20
2022-08-20T00:04:19.158Z,6.07
2022-08-20T00:06:41.240Z,5.43
2022-08-20T00:09:03.643Z,5.03
2022-08-20T00:11:26.975Z,6.85
2022-08-20T00:13:54.293Z,4.88
2022-08-20T00:16:18.024Z,5.10
2022-08-20T00:18:42.897Z,4.65
2022-08-20T00:21:11.305Z,4.82
2022-08-20T00:23:42.398Z,6.80
2022-08-20T00:26:04.826Z,5.95
2022-08-20T00:28:26.267Z,4.93
2022-08-20T00:30:47.940Z,4.70
2022-08-20T00:33:13.603Z,4.45
2022-08-20T00:35:40.077Z,6.05
2022-08-20T00:38:02.081Z,4.65
2022-08-20T00:40:30.588Z,5.07
2022-08-20T00:42:57.492Z,5.40
2022-08-20T00:45:20.907Z,5.72
2022-08-20T00:47:51.437Z,5.82
2022-08-20T00:50:19.976Z,6.43
2022-08-20T00:52:49.765Z,4.88
2022-08-20T00:55:12.906Z,5.13
2022-08-20T00:57:59.153Z,6.05
2022-08-20T01:00:29.047Z,4.32
2022-08-20T01:02:50.727Z,4.55
2022-08-20T01:05:12.262Z,6.43
2022-08-20T01:07:37.078Z,4.70
2022-08-20T01:10:00.204Z,4.63
2022-08-20T01:12:23.654Z,4.60
2022-08-20T01:14:46.680Z,5.15
2022-08-20T01:17:08.793Z,5.53
2022-08-20T01:19:47.790Z,4.75
2022-08-20T01:22:29.024Z,5.25
2022-08-20T01:24:56.297Z,6.70
2022-08-20T01:27:19.113Z,5.22
2022-08-20T01:29:40.772Z,7.07
2022-08-20T01:32:02.707Z,5.10
2022-08-20T01:34:24.149Z,4.80
2022-08-20T01:36:52.945Z,7.20
2022-08-20T01:39:18.756Z,4.85
2022-08-20T01:41:55.608Z,4.25
2022-08-20T01:44:20.029Z,4.95
2022-08-20T01:46:44.200Z,5.15
2022-08-20T01:49:22.982Z,4.97
2022-08-20T01:51:45.526Z,5.13
2022-08-20T01:54:10.614Z,7.68
2022-08-20T01:56:34.519Z,5.60
2022-08-20T01:58:59.278Z,6.15
2022-08-20T02:01:33.920Z,4.88
2022-08-20T02:04:13.085Z,5.97
2022-08-20T02:06:56.531Z,5.55
2022-08-20T02:09:19.393Z,5.70
2022-08-20T02:11:41.822Z,5.13
2022-08-20T02:14:06.754Z,5.82
2022-08-20T02:16:33.507Z,6.32
2022-08-20T02:18:58.838Z,5.57
2022-08-20T02:21:22.636Z,5.15
2022-08-20T02:23:44.136Z,5.10
2022-08-20T02:26:07.510Z,5.18
2022-08-20T02:28:28.962Z,5.47
2022-08-20T02:30:53.559Z,5.68
2022-08-20T02:33:18.822Z,5.45
2022-08-20T02:35:42.852Z,5.72
2022-08-20T02:38:04.979Z,5.82
2022-08-20T02:40:30.855Z,5.40
2022-08-20T02:42:53.870Z,7.10
2022-08-20T02:45:18.873Z,5.50
2022-08-20T02:47:41.169Z,7.32
2022-08-20T02:50:07.988Z,5.35
2022-08-20T02:52:29.582Z,5.30
2022-08-20T02:54:51.545Z,6.00
2022-08-20T02:57:15.943Z,6.72
2022-08-20T02:59:37.385Z,6.47
2022-08-20T03:02:00.554Z,6.07
2022-08-20T03:04:22.385Z,7.17
2022-08-20T03:06:47.656Z,6.67
2022-08-20T03:09:09.131Z,6.70
2022-08-20T03:11:31.602Z,8.18
2022-08-20T03:13:53.057Z,6.25
2022-08-20T03:16:15.217Z,6.97
2022-08-20T03:18:45.130Z,7.30
2022-08-20T03:21:08.159Z,9.32
2022-08-20T03:23:32.199Z,7.13
2022-08-20T03:25:56.781Z,8.37
2022-08-20T03:28:19.508Z,8.18
2022-08-20T03:30:42.427Z,6.57
2022-08-20T03:33:04.058Z,8.30
2022-08-20T03:35:28.028Z,6.95
2022-08-20T03:37:49.982Z,6.60
2022-08-20T03:40:15.579Z,7.43
2022-08-20T03:42:40.247Z,7.80
2022-08-20T03:45:01.888Z,7.87
2022-08-20T03:47:24.643Z,7.25
2022-08-20T03:49:46.415Z,8.00
2022-08-20T03:52:08.805Z,6.72
2022-08-20T03:54:31.893Z,6.20
2022-08-20T03:56:53.513Z,7.47
2022-08-20T03:59:15.007Z,6.63
2022-08-20T04:01:46.081Z,6.53
2022-08-20T04:04:12.176Z,6.60
2022-08-20T04:06:34.166Z,8.33
2022-08-20T04:08:56.400Z,8.33
2022-08-20T04:11:17.844Z,7.60
2022-08-20T04:13:42.648Z,8.47
2022-08-20T04:16:08.800Z,6.90
2022-08-20T04:18:36.940Z,5.90
2022-08-20T04:20:58.409Z,6.13
2022-08-20T04:23:21.240Z,6.80
2022-08-20T04:25:44.611Z,7.23
2022-08-20T04:28:08.896Z,9.23
2022-08-20T04:30:34.468Z,6.23
2022-08-20T04:32:56.438Z,6.57
2022-08-20T04:35:18.666Z,11.03
2022-08-20T04:37:40.908Z,8.00
2022-08-20T04:40:24.475Z,7.35
2022-08-20T04:42:45.917Z,7.85
2022-08-20T04:45:11.560Z,7.38
2022-08-20T04:47:34.802Z,8.57
2022-08-20T04:50:00.396Z,7.35
2022-08-20T04:52:21.835Z,10.35
2022-08-20T04:54:44.025Z,8.98
2022-08-20T04:57:05.467Z,8.98
2022-08-20T04:59:26.962Z,7.65
2022-08-20T05:01:48.488Z,8.85
2022-08-20T05:04:09.953Z,8.40
2022-08-20T05:06:32.027Z,7.85
2022-08-20T05:08:55.857Z,7.40
2022-08-20T05:11:34.160Z,8.15
2022-08-20T05:13:57.695Z,8.75
2022-08-20T05:16:19.972Z,8.65
2022-08-20T05:18:43.241Z,8.95
2022-08-20T05:21:07.534Z,8.52
2022-08-20T05:23:28.993Z,7.93
2022-08-20T05:25:51.578Z,8.98
2022-08-20T05:28:19.040Z,8.07
2022-08-20T05:30:43.033Z,8.45
2022-08-20T05:33:06.795Z,10.05
2022-08-20T05:35:28.283Z,10.15
2022-08-20T05:37:49.781Z,9.23
2022-08-20T05:40:14.516Z,13.70
2022-08-20T05:42:36.074Z,9.57
2022-08-20T05:44:57.532Z,9.48
2022-08-20T05:47:18.965Z,10.63
2022-08-20T05:49:44.065Z,8.50
2022-08-20T05:52:06.063Z,11.18
2022-08-20T05:54:27.744Z,10.23
2022-08-20T05:56:49.873Z,12.27
2022-08-20T05:59:13.927Z,10.63
2022-08-20T06:01:38.383Z,11.90
2022-08-20T06:04:19.057Z,11.35
2022-08-20T06:06:46.254Z,12.45
2022-08-20T06:09:08.842Z,11.70
2022-08-20T06:11:33.873Z,14.07
2022-08-20T06:13:58.460Z,12.40
2022-08-20T06:16:19.946Z,13.68
2022-08-20T06:18:42.180Z,12.90
2022-08-20T06:21:04.254Z,12.30
2022-08-20T06:23:25.972Z,13.73
2022-08-20T06:25:49.992Z,13.20
2022-08-20T06:28:13.720Z,15.30
2022-08-20T06:30:36.183Z,14.27
2022-08-20T06:32:58.138Z,17.20
2022-08-20T06:35:20.180Z,15.05
2022-08-20T06:37:43.070Z,14.48
2022-08-20T06:40:09.079Z,17.08
2022-08-20T06:42:30.635Z,15.07
2022-08-20T06:44:52.208Z,14.82
2022-08-20T06:47:15.138Z,16.58
2022-08-20T06:49:37.103Z,18.02
2022-08-20T06:51:58.573Z,16.27
2022-08-20T06:54:20.682Z,21.77
2022-08-20T06:56:50.079Z,15.23
2022-08-20T06:59:11.551Z,15.85
2022-08-20T07:01:33.118Z,17.52
2022-08-20T07:03:56.242Z,20.67
2022-08-20T07:06:18.095Z,18.10
2022-08-20T07:08:40.436Z,25.15
2022-08-20T07:11:02.457Z,21.92
2022-08-20T07:13:24.454Z,22.27
2022-08-20T07:15:47.015Z,23.27
2022-08-20T07:18:11.057Z,21.63
2022-08-20T07:20:34.909Z,24.05
2022-08-20T07:22:56.435Z,24.33
2022-08-20T07:25:20.081Z,25.05
2022-08-20T07:27:42.926Z,27.33
2022-08-20T07:30:29.494Z,23.48
2022-08-20T07:32:51.917Z,21.83
2022-08-20T07:35:15.997Z,22.08
2022-08-20T07:37:42.876Z,22.75
2022-08-20T07:40:05.865Z,24.33
2022-08-20T07:42:27.768Z,21.38
2022-08-20T07:44:49.300Z,20.75
2022-08-20T07:47:10.800Z,22.45
2022-08-20T07:49:32.576Z,31.38
2022-08-20T07:51:54.024Z,28.17
2022-08-20T07:54:15.495Z,23.92
2022-08-20T07:56:36.948Z,29.05
2022-08-20T07:58:59.955Z,23.60
2022-08-20T08:01:26.026Z,22.98
2022-08-20T08:03:49.982Z,21.83
2022-08-20T08:06:13.130Z,22.27
2022-08-20T08:08:38.069Z,23.85
2022-08-20T08:11:02.762Z,23.80
2022-08-20T08:13:26.804Z,24.92
2022-08-20T08:15:50.091Z,21.48
2022-08-20T08:18:16.504Z,19.83
2022-08-20T08:20:46.958Z,20.33
2022-08-20T08:23:24.942Z,24.80
2022-08-20T08:25:53.243Z,21.13
2022-08-20T08:28:15.113Z,22.95
2022-08-20T08:30:36.578Z,22.35
2022-08-20T08:33:16.770Z,20.00
2022-08-20T08:35:39.700Z,20.15
2022-08-20T08:38:02.967Z,26.08
2022-08-20T08:40:24.454Z,24.08
2022-08-20T08:42:58.067Z,29.77
2022-08-20T08:45:20.408Z,28.23
2022-08-20T08:47:43.421Z,21.80
2022-08-20T08:50:09.928Z,20.55
2022-08-20T08:52:41.065Z,21.52
2022-08-20T08:55:05.924Z,21.15
2022-08-20T08:57:29.066Z,21.67
2022-08-20T09:00:13.810Z,18.48
2022-08-20T09:02:36.729Z,18.70
2022-08-20T09:05:02.114Z,18.55
2022-08-20T09:07:26.493Z,15.50
2022-08-20T09:09:48.018Z,17.08
2022-08-20T09:12:12.616Z,19.98
2022-08-20T09:14:34.544Z,17.40
2022-08-20T09:16:56.013Z,16.38
2022-08-20T09:19:17.470Z,17.92
2022-08-20T09:21:38.988Z,19.23
2022-08-20T09:24:00.451Z,18.80
2022-08-20T09:26:22.084Z,20.05
2022-08-20T09:28:52.045Z,17.60
2022-08-20T09:31:13.813Z,19.08
2022-08-20T09:33:39.747Z,20.75
2022-08-20T09:36:01.209Z,17.70
2022-08-20T09:38:22.661Z,19.17
2022-08-20T09:40:44.602Z,17.40
2022-08-20T09:43:07.916Z,15.77
2022-08-20T09:45:29.473Z,15.65
2022-08-20T09:47:56.947Z,16.48
2022-08-20T09:50:18.878Z,17.50
2022-08-20T09:52:45.396Z,15.18
2022-08-20T09:55:18.540Z,12.73
2022-08-20T09:57:40.470Z,13.10
2022-08-20T10:00:13.584Z,13.35
2022-08-20T10:02:35.513Z,15.48
2022-08-20T10:04:57.589Z,11.75
2022-08-20T10:07:19.239Z,12.50
2022-08-20T10:09:40.820Z,10.38
2022-08-20T10:12:02.528Z,9.45
2022-08-20T10:14:24.004Z,13.13
2022-08-20T10:16:45.601Z,9.10
2022-08-20T10:19:08.473Z,13.05
2022-08-20T10:21:33.395Z,12.02
2022-08-20T10:23:58.559Z,11.38
2022-08-20T10:26:20.013Z,4.43
2022-08-20T10:28:41.464Z,6.85
2022-08-20T10:31:05.715Z,5.70
2022-08-20T10:33:29.408Z,6.13
2022-08-20T10:35:50.856Z,6.68
2022-08-20T10:38:16.252Z,6.50
2022-08-20T10:40:37.813Z,7.07
2022-08-20T10:42:59.322Z,7.55
2022-08-20T10:45:20.819Z,7.22
2022-08-20T10:47:43.210Z,7.10
2022-08-20T10:50:07.861Z,7.47
2022-08-20T10:52:29.694Z,7.15
2022-08-20T10:54:51.787Z,6.07
2022-08-20T10:57:17.133Z,4.90
2022-08-20T10:59:43.334Z,4.60
2022-08-20T11:02:04.940Z,5.53
2022-08-20T11:04:26.478Z,4.35
2022-08-20T11:06:47.935Z,3.78
2022-08-20T11:09:09.767Z,4.18
2022-08-20T11:11:31.336Z,4.88
2022-08-20T11:13:52.791Z,3.90
2022-08-20T11:16:14.473Z,3.05
2022-08-20T11:18:35.923Z,2.75
2022-08-20T11:20:58.040Z,3.65
2022-08-20T11:23:19.555Z,2.90
2022-08-20T11:25:41.050Z,3.15
2022-08-20T11:28:03.510Z,3.65
2022-08-20T11:30:31.048Z,2.50
2022-08-20T11:32:53.152Z,2.95
2022-08-20T11:35:41.034Z,2.67
2022-08-20T11:37:58.482Z,2.58
2022-08-20T11:40:20.464Z,2.65
2022-08-20T11:43:04.428Z,2.70
2022-08-20T11:45:23.482Z,2.78
2022-08-20T11:47:44.942Z,3.47
2022-08-20T11:50:19.555Z,2.28
2022-08-20T11:52:42.733Z,2.70
2022-08-20T11:55:07.386Z,2.65
2022-08-20T11:57:32.347Z,2.45
2022-08-20T11:59:56.571Z,2.63
2022-08-20T12:02:18.189Z,2.80
2022-08-20T12:04:39.683Z,3.47
2022-08-20T12:07:09.255Z,3.13
2022-08-20T12:09:30.691Z,3.90
2022-08-20T12:11:52.144Z,3.17
2022-08-20T12:14:13.594Z,3.40
2022-08-20T12:16:35.113Z,2.80
2022-08-20T12:18:56.577Z,2.60
2022-08-20T12:21:19.407Z,2.72
2022-08-20T12:23:40.892Z,40.60
2022-08-20T12:26:03.428Z,3.25
2022-08-20T12:28:25.965Z,2.92
2022-08-20T12:30:47.621Z,2.85
2022-08-20T12:33:09.067Z,9.98
2022-08-20T12:35:32.041Z,3.17
2022-08-20T12:37:54.687Z,2.47
2022-08-20T12:40:31.942Z,2.60
2022-08-20T12:42:54.993Z,2.80
2022-08-20T12:45:19.089Z,2.83
2022-08-20T12:47:44.989Z,2.63
2022-08-20T12:50:13.113Z,2.83
2022-08-20T12:52:34.782Z,2.83
2022-08-20T12:54:57.266Z,3.05
2022-08-20T12:57:32.728Z,2.70
2022-08-20T12:59:56.371Z,3.03
2022-08-20T13:02:20.574Z,3.20
2022-08-20T13:04:42.016Z,2.70
2022-08-20T13:07:04.563Z,4.18
2022-08-20T13:09:26.009Z,9.35
2022-08-20T13:11:47.482Z,2.45
2022-08-20T13:14:09.348Z,2.50
2022-08-20T13:16:30.946Z,2.50
2022-08-20T13:18:52.403Z,2.50
2022-08-20T13:21:13.880Z,2.40
2022-08-20T13:23:35.325Z,2.47
2022-08-20T13:25:56.780Z,3.08
2022-08-20T13:28:18.237Z,2.53
2022-08-20T13:30:41.374Z,3.20
2022-08-20T13:33:02.904Z,2.88
2022-08-20T13:35:24.439Z,3.10
2022-08-20T13:37:48.239Z,3.20
2022-08-20T13:40:10.861Z,3.05
2022-08-20T13:42:32.375Z,3.70
2022-08-20T13:44:54.583Z,2.72
2022-08-20T13:47:19.221Z,3.40
2022-08-20T13:49:40.999Z,3.40
2022-08-20T13:52:02.653Z,3.10
2022-08-20T13:54:29.569Z,3.20
2022-08-20T13:56:51.962Z,12.05
2022-08-20T13:59:13.420Z,6.20
2022-08-20T14:01:35.041Z,2.40
2022-08-20T14:03:56.515Z,2.42
2022-08-20T14:06:17.975Z,3.42
2022-08-20T14:08:39.446Z,3.10
2022-08-20T14:11:00.953Z,2.67
2022-08-20T14:13:25.389Z,1.85
2022-08-20T14:15:47.213Z,3.00
2022-08-20T14:18:08.700Z,2.10
2022-08-20T14:20:32.686Z,3.38
2022-08-20T14:22:54.662Z,1.92
2022-08-20T14:25:18.817Z,2.97
2022-08-20T14:27:41.215Z,2.17
2022-08-20T14:30:06.874Z,1.83
2022-08-20T14:32:28.861Z,2.10
2022-08-20T14:34:50.330Z,2.78
2022-08-20T14:37:21.475Z,2.53
2022-08-20T14:39:45.382Z,1.88
2022-08-20T14:42:07.031Z,2.30
2022-08-20T14:44:29.856Z,2.05
2022-08-20T14:46:51.311Z,3.45
2022-08-20T14:49:12.768Z,3.70
2022-08-20T14:51:34.258Z,2.38
2022-08-20T14:53:55.768Z,3.13
2022-08-20T14:56:18.085Z,1.80
2022-08-20T14:58:39.530Z,2.30
2022-08-20T15:01:01.061Z,2.17
2022-08-20T15:03:25.525Z,2.72
2022-08-20T15:05:46.984Z,2.67
2022-08-20T15:08:11.846Z,2.10
2022-08-20T15:10:33.868Z,2.17
2022-08-20T15:12:55.502Z,2.58
2022-08-20T15:15:18.091Z,2.30
2022-08-20T15:17:45.191Z,2.20
2022-08-20T15:20:19.874Z,2.03
2022-08-20T15:22:42.489Z,2.10
2022-08-20T15:25:05.778Z,2.00
2022-08-20T15:27:27.820Z,1.73
2022-08-20T15:29:49.893Z,1.70
2022-08-20T15:32:12.074Z,2.75
2022-08-20T15:34:33.533Z,2.40
2022-08-20T15:36:56.982Z,2.92
2022-08-20T15:39:18.453Z,1.77
2022-08-20T15:41:39.938Z,2.25
2022-08-20T15:44:01.399Z,6.35
2022-08-20T15:46:22.860Z,2.42
2022-08-20T15:48:47.226Z,2.17
2022-08-20T15:51:08.610Z,2.00
2022-08-20T15:53:42.871Z,3.00
2022-08-20T15:56:11.452Z,2.00
2022-08-20T15:58:42.900Z,2.00
2022-08-20T16:01:24.755Z,1.90
2022-08-20T16:04:10.992Z,1.58
2022-08-20T16:06:33.121Z,1.92
2022-08-20T16:09:25.381Z,1.70
2022-08-20T16:12:15.555Z,2.58
2022-08-20T16:14:40.858Z,1.65
2022-08-20T16:17:28.814Z,3.28
2022-08-20T16:20:07.122Z,1.70
2022-08-20T16:22:30.502Z,1.60
2022-08-20T16:24:52.002Z,1.85
2022-08-20T16:27:44.306Z,1.50
2022-08-20T16:30:11.877Z,1.40
2022-08-20T16:32:41.861Z,1.30
2022-08-20T16:35:29.881Z,3.03
2022-08-20T16:38:07.594Z,1.63
2022-08-20T16:41:00.924Z,1.40
2022-08-20T16:43:40.967Z,1.40
2022-08-20T16:46:12.114Z,1.60
2022-08-20T16:48:41.840Z,2.38
2022-08-20T16:51:08.732Z,1.70
2022-08-20T16:53:32.255Z,1.55
2022-08-20T16:55:54.840Z,1.63
2022-08-20T16:58:16.495Z,1.50
2022-08-20T17:00:45.202Z,2.95
2022-08-20T17:03:16.778Z,2.83
2022-08-20T17:05:38.173Z,1.73
2022-08-20T17:08:03.989Z,1.40
2022-08-20T17:10:29.014Z,1.63
2022-08-20T17:13:05.284Z,3.50
2022-08-20T17:15:31.424Z,3.47
2022-08-20T17:17:55.732Z,2.03
2022-08-20T17:20:19.965Z,2.53
2022-08-20T17:22:48.506Z,1.70
2022-08-20T17:25:21.617Z,3.38
2022-08-20T17:27:43.196Z,1.60
2022-08-20T17:30:19.975Z,1.60
2022-08-20T17:32:57.538Z,1.92
2022-08-20T17:35:28.476Z,1.90
2022-08-20T17:37:52.379Z,1.80
2022-08-20T17:40:26.137Z,1.83
2022-08-20T17:42:51.685Z,2.55
2022-08-20T17:45:20.792Z,1.95
2022-08-20T17:47:43.896Z,2.63
2022-08-20T17:50:33.833Z,1.92
2022-08-20T17:53:00.400Z,3.92
2022-08-20T17:55:22.145Z,2.10
2022-08-20T17:57:47.780Z,4.85
2022-08-20T18:00:15.353Z,2.13
2022-08-20T18:02:37.100Z,2.33
2022-08-20T18:04:58.644Z,2.00
2022-08-20T18:07:41.092Z,1.90
2022-08-20T18:10:11.621Z,2.00
2022-08-20T18:12:41.160Z,1.92
2022-08-20T18:15:12.622Z,2.53
2022-08-20T18:18:01.695Z,3.22
2022-08-20T18:21:00.523Z,2.10
2022-08-20T18:23:28.713Z,1.95
2022-08-20T18:25:55.919Z,3.50
2022-08-20T18:28:22.288Z,2.72
2022-08-20T18:30:57.321Z,2.40
2022-08-20T18:33:30.774Z,2.20
2022-08-20T18:36:06.935Z,2.13
2022-08-20T18:38:31.371Z,3.67
2022-08-20T18:40:55.238Z,2.65
2022-08-20T18:43:27.884Z,2.17
2022-08-20T18:45:49.337Z,1.75
2022-08-20T18:48:24.114Z,1.98
2022-08-20T18:50:50.600Z,2.10
2022-08-20T18:53:18.829Z,2.45
2022-08-20T18:55:43.371Z,2.22
2022-08-20T18:58:08.478Z,4.07
2022-08-20T19:00:49.080Z,4.03
2022-08-20T19:03:18.933Z,1.75
2022-08-20T19:05:46.579Z,3.05
2022-08-20T19:08:10.275Z,1.83
2022-08-20T19:10:47.495Z,2.42
2022-08-20T19:13:27.127Z,3.47
2022-08-20T19:15:52.129Z,3.53
2022-08-20T19:18:40.668Z,3.65
2022-08-20T19:21:03.791Z,3.67
2022-08-20T19:23:27.538Z,2.35
2022-08-20T19:25:57.410Z,6.03
2022-08-20T19:28:32.768Z,2.15
2022-08-20T19:30:54.428Z,3.33
2022-08-20T19:33:26.524Z,3.20
2022-08-20T19:35:51.217Z,2.40
2022-08-20T19:38:16.443Z,3.72
2022-08-20T19:40:40.119Z,2.25
2022-08-20T19:43:10.932Z,4.63
2022-08-20T19:45:46.580Z,3.17
2022-08-20T19:48:58.780Z,6.07
2022-08-20T19:51:29.854Z,2.50
2022-08-20T19:53:51.428Z,2.30
2022-08-20T19:56:17.660Z,2.53
2022-08-20T19:58:39.426Z,3.22
2022-08-20T20:01:03.435Z,2.40
2022-08-20T20:03:28.272Z,3.22
2022-08-20T20:05:56.555Z,3.38
2022-08-20T20:08:18.748Z,2.70
2022-08-20T20:10:40.280Z,2.80
2022-08-20T20:13:10.241Z,3.00
2022-08-20T20:15:31.870Z,4.93
2022-08-20T20:17:54.374Z,3.60
2022-08-20T20:20:28.527Z,2.70
2022-08-20T20:22:58.021Z,4.00
2022-08-20T20:25:36.235Z,5.28
2022-08-20T20:28:08.089Z,2.58
2022-08-20T20:30:32.692Z,2.85
2022-08-20T20:32:57.005Z,2.75
2022-08-20T20:35:28.977Z,2.65
2022-08-20T20:38:00.120Z,3.03
2022-08-20T20:40:26.526Z,3.17
2022-08-20T20:43:05.538Z,2.85
2022-08-20T20:45:33.292Z,3.47
2022-08-20T20:47:54.772Z,2.90
2022-08-20T20:50:28.486Z,3.28
2022-08-20T20:52:55.623Z,3.38
2022-08-20T20:55:20.105Z,2.72
2022-08-20T20:57:41.555Z,4.28
2022-08-20T21:00:11.557Z,3.47
2022-08-20T21:02:33.016Z,2.88
2022-08-20T21:04:58.183Z,2.83
2022-08-20T21:07:23.669Z,3.33
2022-08-20T21:09:45.981Z,3.40
2022-08-20T21:12:09.881Z,3.05
2022-08-20T21:14:31.309Z,4.32
2022-08-20T21:16:54.003Z,3.55
2022-08-20T21:19:15.902Z,2.70
2022-08-20T21:21:38.998Z,4.47
2022-08-20T21:24:00.448Z,3.33
2022-08-20T21:26:22.247Z,3.50
2022-08-20T21:28:43.717Z,3.35
2022-08-20T21:31:05.442Z,2.92
2022-08-20T21:33:27.008Z,7.15
2022-08-20T21:35:48.865Z,4.82
2022-08-20T21:38:11.146Z,4.05
2022-08-20T21:40:37.077Z,3.45
2022-08-20T21:42:58.885Z,2.90
2022-08-20T21:45:21.243Z,3.10
2022-08-20T21:47:42.844Z,3.40
2022-08-20T21:50:08.835Z,3.47
2022-08-20T21:52:30.293Z,5.72
2022-08-20T21:54:51.955Z,3.15
2022-08-20T21:57:22.234Z,4.05
2022-08-20T21:59:43.959Z,4.22
2022-08-20T22:02:06.306Z,3.85
2022-08-20T22:04:30.326Z,4.07
2022-08-20T22:06:55.453Z,6.55
2022-08-20T22:09:16.936Z,3.78
2022-08-20T22:11:38.630Z,3.58
2022-08-20T22:14:00.602Z,3.22
2022-08-20T22:16:23.473Z,3.67
2022-08-20T22:18:46.432Z,3.80
2022-08-20T22:21:11.221Z,3.65
2022-08-20T22:23:32.792Z,3.17
2022-08-20T22:25:54.332Z,3.28
2022-08-20T22:28:16.476Z,3.47
2022-08-20T22:30:42.099Z,3.30
2022-08-20T22:33:10.542Z,3.88
2022-08-20T22:35:32.783Z,4.57
2022-08-20T22:37:54.491Z,2.92
2022-08-20T22:40:15.985Z,3.03
2022-08-20T22:42:37.483Z,3.20
2022-08-20T22:44:58.921Z,3.20
2022-08-20T22:47:26.561Z,3.58
2022-08-20T22:49:48.019Z,4.93
2022-08-20T22:52:11.412Z,3.40
2022-08-20T22:54:34.231Z,3.40
2022-08-20T22:56:55.770Z,3.47
2022-08-20T22:59:17.224Z,3.67
2022-08-20T23:01:38.817Z,3.65
2022-08-20T23:04:07.069Z,3.20
2022-08-20T23:06:29.679Z,3.83
2022-08-20T23:08:51.128Z,3.33
2022-08-20T23:11:13.064Z,3.50
2022-08-20T23:13:34.588Z,4.82
2022-08-20T23:15:56.142Z,4.18
2022-08-20T23:18:19.598Z,3.88
2022-08-20T23:20:43.271Z,4.43
2022-08-20T23:23:05.743Z,4.07
2022-08-20T23:25:28.277Z,3.50
2022-08-20T23:27:55.245Z,3.17
2022-08-20T23:30:19.301Z,3.22
2022-08-20T23:32:41.051Z,3.10
2022-08-20T23:35:02.623Z,3.60
2022-08-20T23:37:24.476Z,4.75
2022-08-20T23:39:46.584Z,3.90
2022-08-20T23:42:08.165Z,5.10
2022-08-20T23:44:29.647Z,3.28
2022-08-20T23:46:51.275Z,3.90
2022-08-20T23:49:16.205Z,3.38
2022-08-20T23:51:39.119Z,5.73
2022-08-20T23:54:00.961Z,4.40
2022-08-20T23:56:22.840Z,4.67
2022-08-20T23:58:44.548Z,4.13
